logo
Search for airport 
image banner adimage banner adimage banner ad
image banner ad

EHQM - Q1-D (Oil Platform)

Located in , Netherlands

ICAO - , IATA -

Data provided by Airmate  

General information

Coordinates: N52°52'20" E4°10'17"
Elevation is feet MSL.
 
View others Airports in Noord-Holland

Operational data

Special qualification required
Current time UTC:
Current local time:
Weather at : EHKD - Den Helder/De Kooy ( 41 km )
METAR: EHKD 302225Z AUTO 30006KT 240V330 9999 FEW008 BKN010 BKN014 14/12 Q1008 GRN
TAF: TAF EHKD 301643Z 3017/3105 27010KT 9999 SCT008 SCT012 BKN016 PROB30 TEMPO 3022/3105 4000 -RADZ SCT005 BKN008 BECMG 3021/3023 30006KT
View NOTAMs / SUP AIP / TFR affecting this airport [VIEW]
Communications frequencies: [VIEW]

Runways:

Airport contact information

Address: Netherlands

Satellite view of EHQM